Time;durP1;ratioP1;P1;durP2;ratioP2;P2;SDS_P1;SDS_P2;PMS_P1;PMS_P2;Temp;Humidity;BMP_temperature;BMP_pressure;BME280_temperature;BME280_humidity;BME280_pressure;Samples;Min_cycle;Max_cycle;Signal;HPM_P1;HPM_P2
2022/05/26 00:01:49;;;;;;;7.60;1.80;;;;;;;10.95;76.77;100359.52;52772;1271;1017642;-61
2022/05/26 00:04:18;;;;;;;4.90;1.60;;;;;;;10.92;76.85;100356.27;52802;1271;1016549;-62
2022/05/26 00:06:48;;;;;;;6.60;2.10;;;;;;;10.89;76.94;100355.84;52746;1271;1017450;-62
2022/05/26 00:09:17;;;;;;;6.20;1.60;;;;;;;10.84;76.94;100351.73;52751;1271;1016715;-61
2022/05/26 00:11:47;;;;;;;7.40;2.30;;;;;;;10.81;76.89;100354.16;52703;1271;1019127;-62
2022/05/26 00:14:16;;;;;;;5.20;1.70;;;;;;;10.76;77.00;100348.13;52824;1271;1016196;-62
2022/05/26 00:16:46;;;;;;;17.00;2.20;;;;;;;10.72;77.01;100350.33;52714;1271;1019177;-61
2022/05/26 00:19:16;;;;;;;;;;;;;;;10.68;77.17;100354.52;52741;1270;1018678;-63
2022/05/26 00:21:47;;;;;;;8.00;2.00;;;;;;;10.63;77.18;100359.94;52785;1270;1015952;-61
2022/05/26 00:24:18;;;;;;;5.80;1.80;;;;;;;10.59;77.16;100355.98;52769;1269;1016070;-63
2022/05/26 00:26:47;;;;;;;6.60;1.80;;;;;;;10.55;77.52;100356.34;52814;1271;1015882;-63
2022/05/26 00:29:17;;;;;;;7.20;2.00;;;;;;;10.52;77.60;100360.44;52778;1269;1017847;-61
2022/05/26 00:31:46;;;;;;;8.10;2.20;;;;;;;10.49;77.58;100359.92;52772;1270;1017819;-59
2022/05/26 00:34:16;;;;;;;9.10;2.20;;;;;;;10.47;77.67;100363.22;52889;1269;1016199;-61
2022/05/26 00:36:45;;;;;;;5.10;1.70;;;;;;;10.44;77.61;100359.34;52753;1271;1016628;-60
2022/05/26 00:39:16;;;;;;;8.10;2.10;;;;;;;10.40;77.64;100363.11;52719;1271;1018990;-62
2022/05/26 00:41:47;;;;;;;6.70;1.90;;;;;;;10.37;78.00;100363.02;52707;1271;1016683;-60
2022/05/26 00:44:16;;;;;;;7.50;1.80;;;;;;;10.35;78.15;100365.50;52760;1270;1016847;-59
2022/05/26 00:46:51;;;;;;;6.30;1.90;;;;;;;10.36;78.23;100364.66;52805;1271;1016459;-61
2022/05/26 00:49:25;;;;;;;5.10;1.70;;;;;;;10.37;78.57;100363.20;52714;1271;1016684;-60
2022/05/26 00:51:56;;;;;;;8.80;2.60;;;;;;;10.38;78.81;100360.33;52702;1271;1019990;-60
2022/05/26 00:54:28;;;;;;;7.80;2.10;;;;;;;10.40;79.09;100360.02;52802;1271;1016608;-62
2022/05/26 00:57:02;;;;;;;7.20;2.20;;;;;;;10.43;79.37;100361.45;52833;1271;1017706;-60
2022/05/26 00:59:41;;;;;;;7.40;2.60;;;;;;;10.47;79.47;100360.02;52829;1271;1016731;-59
2022/05/26 01:02:12;;;;;;;8.20;2.70;;;;;;;10.51;79.83;100363.73;52739;1271;1016672;-59
2022/05/26 01:04:46;;;;;;;8.40;3.10;;;;;;;10.56;79.91;100358.63;52910;1271;1016508;-61
2022/05/26 01:07:20;;;;;;;7.60;3.20;;;;;;;10.58;80.26;100358.58;52820;1271;1019191;-62
2022/05/26 01:09:50;;;;;;;7.20;2.70;;;;;;;10.61;80.30;100362.44;52808;1271;1020238;-60
2022/05/26 01:12:19;;;;;;;8.20;3.10;;;;;;;10.64;80.54;100360.21;52693;1271;1016462;-60
2022/05/26 01:14:54;;;;;;;11.60;3.10;;;;;;;10.66;80.65;100358.44;52708;1271;1016352;-60
2022/05/26 01:17:37;;;;;;;7.60;3.20;;;;;;;10.69;80.68;100358.79;52755;1271;1015906;-60
2022/05/26 01:20:39;;;;;;;9.30;2.70;;;;;;;10.71;80.61;100355.33;52796;1269;1020724;-61
2022/05/26 01:23:41;;;;;;;9.70;3.20;;;;;;;10.74;80.82;100354.08;52448;1275;1015959;-61
2022/05/26 01:26:45;;;;;;;10.80;3.20;;;;;;;10.77;81.11;100353.16;52367;1281;1015995;-61
2022/05/26 01:29:53;;;;;;;10.60;3.20;;;;;;;10.80;81.48;100349.52;52222;1281;1018573;-60
2022/05/26 01:32:27;;;;;;;8.60;3.10;;;;;;;10.81;81.40;100350.56;52388;1281;1017380;-61
2022/05/26 01:35:05;;;;;;;8.70;3.10;;;;;;;10.82;81.51;100343.96;52414;1280;1016757;-62
2022/05/26 01:37:48;;;;;;;9.70;3.50;;;;;;;10.84;81.48;100345.23;52465;1281;1017259;-60
2022/05/26 01:40:24;;;;;;;10.70;3.00;;;;;;;10.86;81.56;100348.32;52332;1281;1016302;-63
2022/05/26 01:43:03;;;;;;;8.60;2.90;;;;;;;10.88;81.70;100344.04;52254;1281;1016403;-61
2022/05/26 01:45:40;;;;;;;10.30;3.50;;;;;;;10.89;81.65;100342.79;52481;1281;1016589;-60
2022/05/26 01:48:15;;;;;;;8.40;2.90;;;;;;;10.90;81.65;100340.73;52337;1281;1019052;-60
2022/05/26 01:50:49;;;;;;;7.10;3.30;;;;;;;10.90;81.44;100343.92;52439;1281;1016629;-60
2022/05/26 01:53:27;;;;;;;8.20;2.70;;;;;;;10.89;81.35;100341.46;52334;1281;1016383;-63
2022/05/26 01:56:06;;;;;;;7.30;2.50;;;;;;;10.87;81.35;100342.41;52428;1281;1015830;-61
2022/05/26 01:58:38;;;;;;;10.50;2.60;;;;;;;10.85;81.02;100346.38;52420;1281;1016692;-60
2022/05/26 02:01:14;;;;;;;7.40;2.40;;;;;;;10.83;80.96;100350.48;52391;1278;1018390;-62
2022/05/26 02:03:46;;;;;;;7.80;2.60;;;;;;;10.79;80.90;100348.80;52675;1271;1018621;-62
2022/05/26 02:06:20;;;;;;;7.50;2.80;;;;;;;10.79;80.64;100353.97;52656;1270;1016441;-60
2022/05/26 02:08:55;;;;;;;8.10;2.60;;;;;;;10.76;80.62;100348.73;52657;1271;1016282;-60
2022/05/26 02:11:26;;;;;;;6.80;2.70;;;;;;;10.73;80.67;100347.63;52770;1271;1016381;-60
2022/05/26 02:13:59;;;;;;;7.50;2.20;;;;;;;10.70;80.68;100349.88;52726;1271;1016259;-61
2022/05/26 02:16:48;;;;;;;10.60;2.70;;;;;;;10.67;80.47;100350.39;52852;1271;1017390;-61
2022/05/26 02:19:23;;;;;;;9.00;2.90;;;;;;;10.63;80.43;100351.31;52639;1271;1016720;-59
2022/05/26 02:22:01;;;;;;;8.10;2.90;;;;;;;10.61;80.45;100354.30;52679;1271;1016328;-59
2022/05/26 02:24:36;;;;;;;12.50;2.60;;;;;;;10.58;80.42;100356.19;52738;1271;1016690;-60
2022/05/26 02:27:06;;;;;;;10.30;3.00;;;;;;;10.55;80.27;100354.55;52854;1271;1016446;-61
2022/05/26 02:29:53;;;;;;;7.50;2.50;;;;;;;10.52;80.28;100358.76;52793;1269;1016084;-61
2022/05/26 02:32:29;;;;;;;9.00;2.80;;;;;;;10.48;80.24;100356.55;52700;1271;1016352;-60
2022/05/26 02:35:00;;;;;;;8.00;2.60;;;;;;;10.42;80.15;100356.20;52739;1271;1016701;-62
2022/05/26 02:37:31;;;;;;;11.10;3.20;;;;;;;10.38;80.05;100356.13;52813;1270;1016195;-60
2022/05/26 02:40:01;;;;;;;8.40;2.80;;;;;;;10.34;80.14;100355.27;52802;1271;1016343;-62
2022/05/26 02:42:31;;;;;;;10.30;2.60;;;;;;;10.32;79.99;100355.69;52807;1271;1016590;-61
2022/05/26 02:45:01;;;;;;;9.20;2.80;;;;;;;10.28;79.97;100354.70;52614;1270;1016227;-60
2022/05/26 02:47:47;;;;;;;9.90;2.80;;;;;;;10.26;80.01;100351.79;52665;1272;1018601;-59
2022/05/26 02:50:34;;;;;;;9.20;2.50;;;;;;;10.22;80.01;100354.91;52723;1271;1016425;-60
2022/05/26 02:53:12;;;;;;;7.60;2.40;;;;;;;10.18;79.95;100353.45;52721;1271;1016640;-60
2022/05/26 02:55:51;;;;;;;10.40;3.40;;;;;;;10.15;80.06;100356.22;52682;1270;1016352;-62
2022/05/26 02:58:23;;;;;;;;;;;;;;;10.08;80.02;100352.64;52737;1271;1016591;-62
2022/05/26 03:00:54;;;;;;;;;;;;;;;10.04;79.97;100357.55;52686;1270;1020082;-61
2022/05/26 03:03:33;;;;;;;11.80;3.40;;;;;;;10.00;80.02;100359.26;52735;1271;1018872;-61
2022/05/26 03:06:07;;;;;;;10.40;3.50;;;;;;;9.97;80.05;100357.82;52679;1271;1016658;-61
2022/05/26 03:08:39;;;;;;;11.70;3.60;;;;;;;9.94;80.14;100354.34;52677;1270;1019056;-61
2022/05/26 03:11:10;;;;;;;11.80;3.50;;;;;;;9.93;80.19;100355.92;52660;1270;1016185;-59
2022/05/26 03:13:40;;;;;;;7.70;2.50;;;;;;;9.92;80.33;100351.70;52586;1272;1016972;-61
2022/05/26 03:16:12;;;;;;;9.60;2.70;;;;;;;9.92;80.39;100348.96;52789;1271;1016657;-60
2022/05/26 03:18:41;;;;;;;9.60;2.40;;;;;;;9.92;80.48;100351.66;52723;1271;1016558;-60
2022/05/26 03:21:11;;;;;;;9.40;2.50;;;;;;;9.92;80.45;100352.77;52775;1271;1016613;-59
2022/05/26 03:23:40;;;;;;;13.70;3.50;;;;;;;9.91;80.56;100354.02;52817;1270;1016325;-60
2022/05/26 03:26:10;;;;;;;10.60;3.10;;;;;;;9.91;80.67;100348.33;52815;1271;1016687;-61
2022/05/26 03:28:39;;;;;;;9.70;3.20;;;;;;;9.90;80.71;100348.05;52726;1270;1016381;-60
2022/05/26 03:31:10;;;;;;;13.60;2.50;;;;;;;9.89;80.85;100345.45;52679;1272;1016080;-60
2022/05/26 03:42:13;;;;;;;9.20;2.20;;;;;;;9.92;81.38;100353.02;52534;1276;1016252;-63
2022/05/26 03:44:42;;;;;;;10.50;2.40;;;;;;;9.94;81.44;100351.69;52690;1276;1016085;-61
2022/05/26 03:47:21;;;;;;;7.90;2.50;;;;;;;9.96;81.45;100351.49;52470;1278;1016619;-61
2022/05/26 03:49:50;;;;;;;9.30;2.60;;;;;;;9.98;81.54;100351.29;52580;1277;1016465;-60
2022/05/26 03:52:21;;;;;;;9.30;3.70;;;;;;;10.01;81.81;100352.84;52475;1276;1016284;-60
2022/05/26 03:54:50;;;;;;;10.40;3.10;;;;;;;10.04;81.90;100351.11;52514;1277;1015904;-62
2022/05/26 03:57:24;;;;;;;12.80;4.20;;;;;;;10.07;81.76;100351.80;50247;1277;6454242;-62
2022/05/26 03:59:53;;;;;;;9.60;2.80;;;;;;;10.13;81.91;100356.02;52548;1277;1016400;-60
2022/05/26 04:02:22;;;;;;;10.00;2.70;;;;;;;10.18;81.94;100356.34;52426;1276;1016031;-61
2022/05/26 04:04:52;;;;;;;13.70;4.00;;;;;;;10.23;82.01;100356.61;52483;1277;1016657;-60
2022/05/26 04:07:21;;;;;;;12.30;3.00;;;;;;;10.30;82.05;100360.10;52539;1276;1016441;-61
2022/05/26 04:09:50;;;;;;;13.00;3.00;;;;;;;10.36;82.20;100359.33;52596;1277;1016725;-62
2022/05/26 04:12:21;;;;;;;9.90;2.90;;;;;;;10.43;82.02;100358.51;52525;1277;1016606;-62
2022/05/26 04:14:50;;;;;;;9.20;2.80;;;;;;;10.49;82.20;100360.16;52807;1270;1016062;-60
2022/05/26 04:17:19;;;;;;;9.70;3.00;;;;;;;10.57;82.12;100364.14;52795;1270;1016360;-61
2022/05/26 04:19:49;;;;;;;15.60;3.90;;;;;;;10.66;82.61;100360.45;52731;1271;1016633;-61
2022/05/26 04:22:18;;;;;;;10.30;3.30;;;;;;;10.76;83.42;100361.67;52703;1270;1016210;-62
2022/05/26 04:24:49;;;;;;;12.30;3.00;;;;;;;10.86;83.51;100363.77;52837;1269;1016711;-62
2022/05/26 04:27:21;;;;;;;11.50;3.60;;;;;;;10.98;83.77;100365.13;52753;1271;1016096;-60
2022/05/26 04:29:53;;;;;;;10.40;3.00;;;;;;;11.10;83.85;100366.27;52670;1271;1016631;-63
2022/05/26 04:32:24;;;;;;;9.00;2.50;;;;;;;11.22;83.96;100365.77;52679;1270;1018087;-59
2022/05/26 04:34:54;;;;;;;;;;;;;;;11.31;83.95;100361.42;52764;1271;1016668;-62
2022/05/26 04:37:25;;;;;;;7.50;2.40;;;;;;;11.43;84.22;100361.86;52754;1271;1016496;-62
2022/05/26 04:39:56;;;;;;;10.10;2.10;;;;;;;11.53;84.38;100366.20;52678;1270;1016810;-62
2022/05/26 04:42:26;;;;;;;7.60;2.20;;;;;;;11.62;84.43;100370.84;52677;1272;1016286;-61
2022/05/26 04:44:57;;;;;;;8.80;2.70;;;;;;;11.71;84.40;100369.19;52732;1271;1019897;-63
2022/05/26 04:47:27;;;;;;;8.50;2.20;;;;;;;11.79;84.43;100373.20;52632;1271;1020070;-62
2022/05/26 04:49:57;;;;;;;8.10;1.80;;;;;;;11.90;84.75;100373.06;52764;1270;1016690;-62
2022/05/26 04:52:28;;;;;;;9.20;2.50;;;;;;;12.01;84.81;100373.39;52890;1270;1016316;-62
2022/05/26 04:54:57;;;;;;;7.20;2.10;;;;;;;12.13;85.07;100369.35;52769;1270;1017611;-61
2022/05/26 04:57:27;;;;;;;5.90;1.60;;;;;;;12.25;85.14;100369.71;52892;1270;1016516;-63
2022/05/26 04:59:56;;;;;;;8.20;2.00;;;;;;;12.36;85.06;100371.09;52923;1270;1017461;-61
2022/05/26 05:02:26;;;;;;;7.40;2.70;;;;;;;12.49;85.44;100380.17;52980;1270;1019043;-61
2022/05/26 05:04:55;;;;;;;6.50;1.60;;;;;;;12.63;85.54;100379.23;52803;1271;1016331;-63
2022/05/26 05:07:24;;;;;;;6.30;1.70;;;;;;;12.80;85.58;100379.04;52765;1270;1015859;-62
2022/05/26 05:09:53;;;;;;;7.80;2.20;;;;;;;12.94;85.58;100379.12;52764;1271;1016540;-62
2022/05/26 05:12:24;;;;;;;8.10;1.60;;;;;;;13.11;85.56;100379.38;52791;1270;1016649;-62
2022/05/26 05:14:55;;;;;;;8.50;2.00;;;;;;;13.27;85.71;100376.10;52806;1269;1016247;-60
2022/05/26 05:17:26;;;;;;;6.80;1.50;;;;;;;13.44;85.30;100374.26;52799;1270;1016431;-62
2022/05/26 05:19:56;;;;;;;7.10;1.50;;;;;;;13.59;85.39;100374.50;52717;1270;1016177;-63
2022/05/26 05:22:30;;;;;;;6.20;1.30;;;;;;;13.73;84.81;100374.63;52736;1271;1015779;-63
2022/05/26 05:25:03;;;;;;;5.40;1.40;;;;;;;13.88;84.42;100376.06;52706;1271;1016270;-63
2022/05/26 05:27:37;;;;;;;6.70;1.50;;;;;;;14.01;84.33;100377.20;52752;1271;1016373;-62
2022/05/26 05:30:12;;;;;;;7.00;1.30;;;;;;;14.14;84.19;100376.56;52850;1271;1016371;-63
2022/05/26 05:32:45;;;;;;;6.40;1.10;;;;;;;14.25;83.66;100380.48;52686;1270;1018760;-63
2022/05/26 05:35:18;;;;;;;6.20;1.10;;;;;;;14.37;83.88;100386.65;52795;1270;1016397;-63
2022/05/26 05:37:47;;;;;;;7.20;1.50;;;;;;;14.47;83.67;100388.84;52775;1270;1016015;-62
2022/05/26 05:40:16;;;;;;;4.70;1.00;;;;;;;14.57;83.37;100388.34;52853;1270;1016313;-62
2022/05/26 05:42:45;;;;;;;6.20;1.20;;;;;;;14.66;83.33;100390.28;52687;1270;1016664;-62
2022/05/26 05:45:16;;;;;;;5.40;1.00;;;;;;;14.75;82.96;100388.27;52764;1270;1016473;-63
2022/05/26 05:47:46;;;;;;;7.30;1.30;;;;;;;14.83;82.59;100392.39;52556;1271;1016745;-63
2022/05/26 05:50:15;;;;;;;5.70;0.90;;;;;;;14.93;82.27;100396.10;52735;1271;1016603;-63
2022/05/26 05:52:44;;;;;;;4.20;0.90;;;;;;;15.01;81.86;100394.55;52785;1270;1016515;-63
2022/05/26 05:55:13;;;;;;;6.20;0.90;;;;;;;15.10;81.82;100391.48;52738;1271;1016379;-63
2022/05/26 05:57:42;;;;;;;3.50;0.90;;;;;;;15.17;81.17;100390.32;52780;1268;1016604;-63
2022/05/26 06:00:13;;;;;;;6.90;1.00;;;;;;;15.24;81.11;100390.94;52820;1270;1016426;-62
2022/05/26 06:02:43;;;;;;;6.10;1.50;;;;;;;15.32;80.83;100395.16;52845;1270;1016517;-63
2022/05/26 06:05:14;;;;;;;6.80;1.00;;;;;;;15.41;80.80;100394.58;52759;1269;1016572;-63
2022/05/26 06:07:43;;;;;;;7.70;1.00;;;;;;;15.50;80.40;100396.96;52911;1269;1015990;-63
2022/05/26 06:10:14;;;;;;;3.20;0.80;;;;;;;15.57;80.05;100402.48;52762;1271;1016403;-63
2022/05/26 06:12:43;;;;;;;6.20;1.20;;;;;;;15.65;80.16;100405.13;52810;1270;1016361;-63
2022/05/26 06:15:14;;;;;;;2.20;0.80;;;;;;;15.72;79.66;100402.36;52691;1270;1016161;-63
2022/05/26 06:17:43;;;;;;;3.90;0.80;;;;;;;15.78;79.64;100405.95;52747;1271;1016579;-63
2022/05/26 06:20:13;;;;;;;3.10;0.90;;;;;;;15.85;79.29;100403.91;52813;1271;1016723;-63
2022/05/26 06:22:46;;;;;;;6.50;0.80;;;;;;;15.92;78.94;100406.81;52689;1270;1016675;-64
2022/05/26 06:25:17;;;;;;;5.40;0.70;;;;;;;15.98;78.70;100412.14;52805;1270;1016480;-63
2022/05/26 06:30:34;;;;;;;4.30;0.70;;;;;;;16.08;78.01;100413.58;52806;1270;1016776;-64
2022/05/26 06:38:44;;;;;;;5.40;0.60;;;;;;;16.29;77.66;100411.80;52778;1270;1016717;-64
2022/05/26 06:44:04;;;;;;;6.90;0.90;;;;;;;16.45;77.21;100417.41;52758;1271;1016643;-63
2022/05/26 06:46:33;;;;;;;4.30;0.80;;;;;;;16.55;76.80;100413.84;52709;1271;1015974;-63
2022/05/26 06:49:02;;;;;;;2.60;0.70;;;;;;;16.66;76.67;100415.04;52758;1271;1017844;-64
2022/05/26 06:51:31;;;;;;;5.50;0.70;;;;;;;16.75;76.52;100415.36;52711;1270;1016676;-64
2022/05/26 06:54:00;;;;;;;4.30;0.80;;;;;;;16.85;76.14;100414.10;52736;1270;1020046;-63
2022/05/26 06:56:30;;;;;;;2.70;0.70;;;;;;;16.96;75.58;100421.34;52829;1269;1016245;-63
2022/05/26 06:59:00;;;;;;;5.40;0.70;;;;;;;17.06;75.62;100417.50;52688;1270;1016627;-64
2022/05/26 07:01:29;;;;;;;5.10;0.60;;;;;;;17.16;74.41;100419.51;53192;1270;1016310;-64
2022/05/26 07:03:58;;;;;;;3.60;0.50;;;;;;;17.26;73.49;100417.10;52771;1270;1016635;-64
2022/05/26 07:06:28;;;;;;;6.50;0.70;;;;;;;17.35;70.90;100418.27;52630;1270;1016649;-64
2022/05/26 07:08:58;;;;;;;5.80;0.70;;;;;;;17.42;69.54;100418.33;52720;1271;1016660;-64
2022/05/26 07:11:28;;;;;;;5.30;0.40;;;;;;;17.48;69.11;100417.64;52746;1270;1015870;-64
2022/05/26 07:14:00;;;;;;;2.90;0.50;;;;;;;17.57;68.76;100416.48;52672;1270;1016714;-65
2022/05/26 07:16:32;;;;;;;2.40;0.50;;;;;;;17.67;68.79;100416.51;52866;1269;1016386;-66
2022/05/26 07:19:04;;;;;;;6.00;0.80;;;;;;;17.77;68.24;100418.95;52696;1271;1016559;-66
2022/05/26 07:21:36;;;;;;;6.80;0.60;;;;;;;17.86;66.85;100418.52;52770;1270;1016632;-66
2022/05/26 07:24:08;;;;;;;4.40;0.50;;;;;;;17.95;67.44;100421.64;52818;1270;1016752;-66
2022/05/26 07:26:42;;;;;;;3.80;0.50;;;;;;;18.03;66.30;100419.81;52707;1270;1016285;-66
2022/05/26 07:29:12;;;;;;;3.00;0.30;;;;;;;18.11;65.06;100426.27;52799;1270;1015992;-66
2022/05/26 07:31:43;;;;;;;7.60;0.50;;;;;;;18.17;64.26;100429.00;52786;1270;1016534;-65
2022/05/26 07:34:14;;;;;;;3.40;0.30;;;;;;;18.21;64.56;100420.85;52845;1271;1016687;-65
2022/05/26 07:42:24;;;;;;;4.30;0.30;;;;;;;18.34;63.16;100422.73;52753;1271;1016613;-66
2022/05/26 07:44:55;;;;;;;2.50;0.30;;;;;;;18.38;61.60;100420.63;52967;1270;1016275;-65
2022/05/26 07:47:27;;;;;;;4.10;0.60;;;;;;;18.43;62.17;100428.10;52844;1270;1016672;-66
2022/05/26 07:49:59;;;;;;;5.10;0.50;;;;;;;18.51;61.84;100431.99;52835;1270;1016625;-65
2022/05/26 07:52:30;;;;;;;2.00;0.40;;;;;;;18.56;60.23;100432.04;52879;1270;1016561;-66
2022/05/26 07:55:01;;;;;;;3.90;0.40;;;;;;;18.56;60.02;100429.77;52991;1269;1016073;-65
2022/05/26 07:57:34;;;;;;;2.20;0.50;;;;;;;18.59;60.36;100431.48;52785;1270;1016602;-66
2022/05/26 08:00:09;;;;;;;4.40;0.50;;;;;;;18.64;60.06;100430.58;53096;1270;1019907;-66
2022/05/26 08:02:41;;;;;;;3.80;0.30;;;;;;;18.69;59.04;100427.73;52866;1269;1015923;-66
2022/05/26 08:05:13;;;;;;;2.10;0.20;;;;;;;18.70;58.03;100425.61;52771;1271;1016277;-67
2022/05/26 08:07:44;;;;;;;3.70;0.40;;;;;;;18.72;58.20;100419.02;52886;1270;1016436;-67
2022/05/26 08:10:22;;;;;;;2.60;0.30;;;;;;;18.75;58.50;100415.48;52889;1270;1016752;-66
2022/05/26 08:12:55;;;;;;;3.70;0.30;;;;;;;18.80;58.37;100416.36;52825;1270;1016235;-67
2022/05/26 08:15:32;;;;;;;3.60;0.40;;;;;;;18.89;58.14;100417.42;52850;1270;1016408;-67
2022/05/26 08:18:06;;;;;;;1.60;0.30;;;;;;;18.97;57.32;100416.67;52844;1270;1016738;-68
2022/05/26 08:20:38;;;;;;;2.30;0.20;;;;;;;19.01;56.34;100420.31;52700;1271;1016421;-68
2022/05/26 08:23:10;;;;;;;3.30;0.20;;;;;;;19.03;55.50;100426.05;52793;1270;1016443;-68
2022/05/26 08:25:43;;;;;;;3.90;0.60;;;;;;;19.03;55.37;100426.31;52858;1270;1016153;-68
2022/05/26 08:28:15;;;;;;;4.60;0.30;;;;;;;19.04;54.83;100430.71;52838;1270;1016473;-68
2022/05/26 08:30:48;;;;;;;3.00;0.30;;;;;;;19.06;54.18;100435.95;52907;1271;1016280;-67
2022/05/26 08:33:19;;;;;;;4.20;0.30;;;;;;;19.07;53.06;100432.74;52926;1270;1016579;-68
2022/05/26 08:35:50;;;;;;;1.90;0.20;;;;;;;19.10;53.72;100435.70;52929;1270;1016320;-69
2022/05/26 08:38:20;;;;;;;1.00;0.10;;;;;;;19.16;53.72;100442.20;52739;1269;1016630;-67
2022/05/26 08:40:51;;;;;;;;;;;;;;;19.22;52.83;100439.39;52779;1270;1020452;-69
2022/05/26 08:43:24;;;;;;;2.60;0.30;;;;;;;19.25;51.94;100441.30;52768;1271;1018220;-70
2022/05/26 08:45:55;;;;;;;0.60;0.10;;;;;;;19.27;52.08;100436.89;53104;1270;1015915;-69
2022/05/26 08:48:51;;;;;;;3.10;0.20;;;;;;;19.31;52.44;100438.81;53042;1270;1020680;-67
2022/05/26 08:51:33;;;;;;;4.70;0.40;;;;;;;19.39;52.61;100435.80;52638;1276;1016596;-68
2022/05/26 08:54:05;;;;;;;2.30;0.30;;;;;;;19.48;52.25;100433.71;52457;1274;1015882;-68
2022/05/26 08:56:37;;;;;;;1.80;0.30;;;;;;;19.56;52.58;100431.23;52554;1276;1016300;-67
2022/05/26 08:59:12;;;;;;;1.80;0.30;;;;;;;19.65;52.03;100435.11;52517;1276;1016620;-68
2022/05/26 09:01:44;;;;;;;5.30;0.70;;;;;;;19.71;50.84;100436.73;52494;1276;1019687;-69
2022/05/26 09:04:16;;;;;;;3.50;0.20;;;;;;;19.74;50.79;100438.64;52492;1276;1015974;-68
2022/05/26 09:15:22;;;;;;;0.60;0.20;;;;;;;20.02;50.52;100440.88;52517;1276;1016433;-68
2022/05/26 09:17:52;;;;;;;1.70;0.20;;;;;;;20.14;50.32;100437.48;52453;1276;1016605;-68
2022/05/26 09:20:39;;;;;;;2.30;0.30;;;;;;;20.16;49.98;100444.59;52490;1276;1016628;-68
2022/05/26 09:23:22;;;;;;;2.50;0.30;;;;;;;20.17;49.99;100441.44;52573;1276;1015943;-68
2022/05/26 09:25:54;;;;;;;1.20;0.20;;;;;;;20.25;49.91;100444.91;52441;1276;1017052;-68
2022/05/26 09:28:33;;;;;;;0.70;0.10;;;;;;;20.35;49.87;100442.51;52602;1270;1015922;-68
2022/05/26 09:31:29;;;;;;;4.60;0.30;;;;;;;20.38;49.07;100441.84;52825;1270;1016390;-68
2022/05/26 09:34:15;;;;;;;1.90;0.10;;;;;;;20.31;49.07;100437.88;52958;1270;1016320;-68
2022/05/26 09:36:48;;;;;;;3.40;0.30;;;;;;;20.22;49.14;100447.98;52846;1270;1016512;-68
2022/05/26 09:39:25;;;;;;;3.20;0.30;;;;;;;20.13;49.33;100443.58;52833;1270;1016676;-68
2022/05/26 09:41:59;;;;;;;5.20;0.20;;;;;;;20.10;49.16;100438.37;52793;1270;1016781;-68
2022/05/26 09:44:49;;;;;;;2.30;0.20;;;;;;;20.12;49.67;100438.55;52774;1270;1016739;-68
2022/05/26 09:47:27;;;;;;;;;;;;;;;20.19;49.36;100447.71;52855;1270;1016589;-68
2022/05/26 09:50:02;;;;;;;2.60;1.00;;;;;;;20.18;48.84;100449.16;52790;1270;1016932;-68
2022/05/26 09:52:44;;;;;;;2.40;0.20;;;;;;;20.11;48.61;100447.05;52966;1270;1016174;-68
2022/05/26 09:55:24;;;;;;;3.50;0.30;;;;;;;20.07;48.72;100443.27;52835;1270;1019191;-68
2022/05/26 09:58:06;;;;;;;5.20;0.20;;;;;;;20.19;49.44;100443.39;52808;1270;1016333;-68
2022/05/26 10:00:39;;;;;;;2.20;0.10;;;;;;;20.38;49.35;100441.04;52797;1270;1015813;-68
2022/05/26 10:03:21;;;;;;;1.00;0.10;;;;;;;20.57;49.12;100439.55;52776;1270;1015962;-68
2022/05/26 10:06:03;;;;;;;0.60;0.10;;;;;;;20.69;48.20;100444.15;52715;1271;1016313;-68
2022/05/26 10:08:45;;;;;;;4.10;0.20;;;;;;;20.74;47.79;100446.42;52894;1270;1016617;-67
2022/05/26 10:11:26;;;;;;;2.90;0.20;;;;;;;20.77;47.82;100449.14;52860;1270;1016267;-68
2022/05/26 10:14:16;;;;;;;3.20;0.30;;;;;;;20.85;47.99;100449.73;52744;1270;1015904;-67
2022/05/26 10:16:51;;;;;;;;;;;;;;;20.93;47.46;100455.55;52887;1270;1015862;-67
2022/05/26 10:19:39;;;;;;;4.50;0.30;;;;;;;20.89;47.43;100452.73;52679;1270;1016359;-67
2022/05/26 10:22:27;;;;;;;1.60;0.30;;;;;;;20.87;47.01;100453.38;52698;1270;1016568;-68
2022/05/26 10:25:13;;;;;;;6.30;0.30;;;;;;;20.83;46.71;100451.46;52762;1270;1015973;-68
2022/05/26 10:28:02;;;;;;;2.30;0.20;;;;;;;20.74;46.40;100453.49;52754;1270;1016124;-68
2022/05/26 10:30:44;;;;;;;4.70;0.30;;;;;;;20.68;47.12;100455.71;52746;1270;1016635;-68
2022/05/26 10:33:34;;;;;;;1.30;0.20;;;;;;;20.65;46.99;100458.05;52903;1270;1017197;-68
2022/05/26 10:36:14;;;;;;;1.20;0.20;;;;;;;20.61;46.83;100458.33;52823;1270;1018644;-69
2022/05/26 10:39:08;;;;;;;0.90;0.20;;;;;;;20.60;47.32;100456.70;52807;1270;1016519;-69
2022/05/26 10:41:45;;;;;;;1.10;0.20;;;;;;;20.61;47.15;100459.46;52753;1271;1016703;-69
2022/05/26 10:44:24;;;;;;;0.50;0.10;;;;;;;20.61;47.11;100453.02;52844;1270;1016591;-69
2022/05/26 10:47:03;;;;;;;2.00;0.10;;;;;;;20.60;47.74;100454.95;52812;1270;1016221;-69
2022/05/26 10:49:39;;;;;;;2.70;0.20;;;;;;;20.66;47.83;100453.89;52802;1270;1016383;-69
2022/05/26 10:52:16;;;;;;;1.50;0.10;;;;;;;20.81;47.33;100461.46;53049;1270;1016126;-69
2022/05/26 10:54:54;;;;;;;3.60;0.20;;;;;;;20.86;46.78;100464.77;53018;1270;1016625;-70
2022/05/26 10:57:33;;;;;;;0.50;0.00;;;;;;;20.84;46.50;100465.00;52976;1270;1016333;-69
2022/05/26 11:00:05;;;;;;;1.40;0.10;;;;;;;20.86;46.36;100468.89;53093;1270;1016529;-69
2022/05/26 11:02:40;;;;;;;3.90;0.20;;;;;;;20.94;46.63;100463.77;53203;1270;1016621;-69
2022/05/26 11:05:17;;;;;;;2.80;0.20;;;;;;;21.00;46.58;100459.95;53033;1270;1016584;-69
2022/05/26 11:07:52;;;;;;;3.30;0.20;;;;;;;21.07;46.96;100463.19;52907;1270;1016464;-69
2022/05/26 11:10:28;;;;;;;4.90;0.30;;;;;;;21.11;46.69;100466.46;53057;1270;1017317;-69
2022/05/26 11:13:05;;;;;;;2.80;0.20;;;;;;;21.03;46.65;100465.33;53160;1270;1015841;-69
2022/05/26 11:18:35;;;;;;;1.40;0.20;;;;;;;20.94;46.57;100472.27;52942;1270;1016166;-69
2022/05/26 11:21:06;;;;;;;2.60;0.10;;;;;;;20.86;46.04;100476.38;53216;1271;1016651;-69
2022/05/26 11:23:41;;;;;;;2.30;0.10;;;;;;;20.81;45.86;100478.54;53032;1270;1016315;-70
2022/05/26 11:26:27;;;;;;;2.40;0.20;;;;;;;20.81;46.26;100478.79;53182;1270;1016192;-70
2022/05/26 11:29:06;;;;;;;1.70;0.10;;;;;;;20.93;46.11;100475.72;53132;1270;1016269;-70
2022/05/26 11:37:34;;;;;;;6.10;0.20;;;;;;;21.39;45.23;100472.44;53172;1270;1016132;-70
2022/05/26 11:40:12;;;;;;;1.10;0.20;;;;;;;21.42;45.43;100474.95;53164;1270;1016695;-70
2022/05/26 11:43:03;;;;;;;3.80;0.20;;;;;;;21.54;45.92;100468.11;52845;1271;1016490;-70
2022/05/26 11:45:55;;;;;;;2.70;0.20;;;;;;;21.68;44.58;100476.02;53148;1270;1016651;-70
2022/05/26 11:48:49;;;;;;;3.60;0.20;;;;;;;21.71;43.98;100475.59;53013;1271;1016632;-70
2022/05/26 11:51:38;;;;;;;3.10;0.30;;;;;;;21.61;44.01;100477.38;52999;1270;1016124;-70
2022/05/26 11:54:09;;;;;;;2.30;0.20;;;;;;;21.58;44.15;100476.05;53160;1270;1016365;-71
2022/05/26 11:56:50;;;;;;;0.60;0.10;;;;;;;21.60;43.51;100475.95;53092;1270;1016414;-71
2022/05/26 11:59:27;;;;;;;2.80;0.10;;;;;;;21.50;43.55;100474.35;53163;1270;1016366;-70
2022/05/26 12:02:16;;;;;;;2.50;0.20;;;;;;;21.41;43.72;100466.81;53059;1270;1015991;-70
2022/05/26 12:04:49;;;;;;;2.80;0.10;;;;;;;21.32;43.75;100462.20;53033;1270;1015584;-70
2022/05/26 12:07:40;;;;;;;1.60;0.10;;;;;;;21.22;43.59;100467.05;53090;1270;1016215;-70
2022/05/26 12:10:24;;;;;;;1.80;0.10;;;;;;;21.09;43.45;100464.49;53152;1270;1016699;-70
2022/05/26 12:13:37;;;;;;;2.80;0.10;;;;;;;20.95;43.60;100467.69;52964;1271;1016112;-70
2022/05/26 12:16:27;;;;;;;0.90;0.20;;;;;;;20.85;44.01;100467.66;52826;1276;1016635;-71
2022/05/26 12:19:04;;;;;;;1.20;0.10;;;;;;;20.84;44.11;100466.46;52718;1276;1016277;-70
2022/05/26 12:21:46;;;;;;;2.20;0.10;;;;;;;20.81;44.09;100466.20;52926;1276;1016033;-70
2022/05/26 12:24:51;;;;;;;2.80;0.10;;;;;;;20.81;44.13;100467.19;52676;1276;1018327;-70
2022/05/26 12:27:52;;;;;;;0.60;0.10;;;;;;;20.82;43.91;100460.80;52657;1276;1016309;-70